createdAt,value
2022-09-16T00:00:40.489Z,60.6
2022-09-16T00:01:41.575Z,60.6
2022-09-16T00:02:42.521Z,60.7
2022-09-16T00:03:43.528Z,60.9
2022-09-16T00:04:44.528Z,61
2022-09-16T00:05:45.448Z,61
2022-09-16T00:06:46.606Z,60.5
2022-09-16T00:07:48.614Z,60.2
2022-09-16T00:08:50.545Z,60.5
2022-09-16T00:09:51.553Z,60.6
2022-09-16T00:10:52.486Z,60.9
2022-09-16T00:11:53.485Z,60.6
2022-09-16T00:12:54.510Z,60.4
2022-09-16T00:13:55.497Z,60.8
2022-09-16T00:14:56.426Z,60.9
2022-09-16T00:15:57.511Z,60.5
2022-09-16T00:16:58.506Z,60.4
2022-09-16T00:17:59.631Z,60.5
2022-09-16T00:19:01.465Z,60.5
2022-09-16T00:20:02.412Z,60.5
2022-09-16T00:21:03.567Z,60.6
2022-09-16T00:22:04.576Z,60.7
2022-09-16T00:23:05.475Z,60.5
2022-09-16T00:24:06.465Z,60.5
2022-09-16T00:25:07.410Z,60.4
2022-09-16T00:26:08.547Z,60.4
2022-09-16T00:27:09.534Z,60.4
2022-09-16T00:28:10.551Z,60.9
2022-09-16T00:29:11.514Z,61
2022-09-16T00:30:12.786Z,61.1
2022-09-16T00:31:14.549Z,61.2
2022-09-16T00:32:15.528Z,61.3
2022-09-16T00:33:16.618Z,61.3
2022-09-16T00:34:17.738Z,61.4
2022-09-16T00:35:19.405Z,61.4
2022-09-16T00:36:20.485Z,61.5
2022-09-16T00:37:21.705Z,61.5
2022-09-16T00:38:23.858Z,61.4
2022-09-16T00:39:25.555Z,61.5
2022-09-16T00:40:26.730Z,61.6
2022-09-16T00:41:28.685Z,61.6
2022-09-16T00:42:30.446Z,61.8
2022-09-16T00:43:31.486Z,61.9
2022-09-16T00:44:32.507Z,62
2022-09-16T00:45:33.416Z,62
2022-09-16T00:46:34.499Z,62
2022-09-16T00:47:35.514Z,62.2
2022-09-16T00:48:36.697Z,62.2
2022-09-16T00:49:38.545Z,61.9
2022-09-16T00:50:39.526Z,62.2
2022-09-16T00:51:40.687Z,62.2
2022-09-16T00:52:42.585Z,62.2
2022-09-16T00:53:43.608Z,62.1
2022-09-16T00:54:44.506Z,62.1
2022-09-16T00:55:45.605Z,62.2
2022-09-16T00:56:46.797Z,62.3
2022-09-16T00:57:48.506Z,62.2
2022-09-16T00:58:49.693Z,62.1
2022-09-16T00:59:51.566Z,61.9
2022-09-16T01:04:14.760Z,62.1
2022-09-16T01:05:16.554Z,62.1
2022-09-16T01:06:17.491Z,62
2022-09-16T01:07:18.552Z,62
2022-09-16T01:08:19.691Z,62.1
2022-09-16T01:09:21.631Z,62.2
2022-09-16T01:10:23.671Z,62.2
2022-09-16T01:11:25.463Z,61.9
2022-09-16T01:12:26.691Z,61.6
2022-09-16T01:13:28.599Z,61.6
2022-09-16T01:14:29.685Z,61.5
2022-09-16T01:15:31.598Z,61
2022-09-16T01:16:32.730Z,61
2022-09-16T01:17:34.491Z,61
2022-09-16T01:18:35.490Z,61
2022-09-16T01:19:36.684Z,60.8
2022-09-16T01:20:38.530Z,60.5
2022-09-16T01:21:39.560Z,60.7
2022-09-16T01:22:40.659Z,60.8
2022-09-16T01:23:42.678Z,61
2022-09-16T01:24:44.591Z,60.7
2022-09-16T01:25:45.491Z,60.2
2022-09-16T01:26:46.840Z,59.8
2022-09-16T01:27:48.851Z,60.4
2022-09-16T01:28:50.741Z,60
2022-09-16T01:29:52.691Z,60.3
2022-09-16T01:30:54.671Z,60.2
2022-09-16T01:31:56.711Z,60.3
2022-09-16T01:32:58.572Z,60.3
2022-09-16T01:33:59.551Z,60.3
2022-09-16T01:35:00.560Z,60.6
2022-09-16T01:36:01.577Z,60.4
2022-09-16T01:37:02.499Z,60.3
2022-09-16T01:38:03.482Z,60.4
2022-09-16T01:39:04.531Z,60.1
2022-09-16T01:40:05.620Z,60.2
2022-09-16T01:41:06.570Z,60.5
2022-09-16T01:42:07.630Z,60.4
2022-09-16T01:43:08.550Z,60.4
2022-09-16T01:44:09.527Z,60.5
2022-09-16T01:45:10.655Z,60.3
2022-09-16T01:46:12.625Z,60.3
2022-09-16T01:47:13.830Z,60.3
2022-09-16T01:48:15.491Z,60.4
2022-09-16T01:49:16.551Z,60.2
2022-09-16T01:50:17.697Z,60
2022-09-16T01:51:19.487Z,60.2
2022-09-16T01:52:20.919Z,60.4
2022-09-16T01:53:22.872Z,60.4
2022-09-16T01:54:24.913Z,60.2
2022-09-16T01:55:26.618Z,60
2022-09-16T01:56:27.550Z,60.1
2022-09-16T01:57:28.532Z,60.2
2022-09-16T01:58:29.847Z,60
2022-09-16T01:59:31.526Z,60.2
2022-09-16T02:00:32.758Z,60.3
2022-09-16T02:01:34.754Z,60.3
2022-09-16T02:02:36.704Z,60.3
2022-09-16T02:03:37.550Z,60.2
2022-09-16T02:04:38.511Z,60.3
2022-09-16T02:05:39.597Z,60.5
2022-09-16T02:06:40.638Z,60.3
2022-09-16T02:07:41.618Z,60.3
2022-09-16T02:08:42.760Z,60.2
2022-09-16T02:09:44.599Z,60.3
2022-09-16T02:10:45.600Z,60.2
2022-09-16T02:11:46.611Z,60.3
2022-09-16T02:12:47.599Z,60.2
2022-09-16T02:13:48.807Z,60.2
2022-09-16T02:14:50.490Z,60.2
2022-09-16T02:15:51.620Z,60.2
2022-09-16T02:16:52.540Z,60.3
2022-09-16T02:17:53.559Z,60.4
2022-09-16T02:18:54.558Z,60.3
2022-09-16T02:19:55.550Z,60.3
2022-09-16T02:20:56.736Z,60.3
2022-09-16T02:21:58.736Z,60.3
2022-09-16T02:23:00.510Z,60.1
2022-09-16T02:24:01.632Z,60.2
2022-09-16T02:25:02.534Z,60.2
2022-09-16T02:26:03.811Z,60.2
2022-09-16T02:27:05.619Z,60.1
2022-09-16T02:28:06.852Z,59.9
2022-09-16T02:29:08.590Z,60.2
2022-09-16T02:30:09.670Z,60.1
2022-09-16T02:31:11.663Z,59.8
2022-09-16T02:32:12.511Z,59.8
2022-09-16T02:33:13.951Z,60
2022-09-16T02:34:15.690Z,59.5
2022-09-16T02:35:17.790Z,59.6
2022-09-16T02:36:19.852Z,59.7
2022-09-16T02:37:21.590Z,59.8
2022-09-16T02:38:22.584Z,59.9
2022-09-16T02:39:23.559Z,59.6
2022-09-16T02:40:24.782Z,59.8
2022-09-16T02:41:26.530Z,60
2022-09-16T02:42:27.539Z,60.1
2022-09-16T02:43:28.610Z,60.1
2022-09-16T02:44:29.630Z,60.1
2022-09-16T02:45:30.770Z,60.1
2022-09-16T02:46:33.143Z,59.9
2022-09-16T02:47:34.627Z,59.8
2022-09-16T02:48:35.742Z,59.4
2022-09-16T02:49:37.558Z,59.3
2022-09-16T02:50:38.633Z,59.3
2022-09-16T02:51:39.719Z,59.5
2022-09-16T02:52:41.584Z,59.7
2022-09-16T02:53:42.604Z,59.2
2022-09-16T02:54:43.570Z,58.6
2022-09-16T02:55:44.646Z,59
2022-09-16T02:56:45.770Z,59.2
2022-09-16T02:57:47.791Z,59.4
2022-09-16T02:58:49.567Z,58.6
2022-09-16T02:59:50.750Z,58.7
2022-09-16T03:00:52.798Z,58.6
2022-09-16T03:01:54.575Z,58.7
2022-09-16T03:02:55.833Z,59
2022-09-16T03:03:57.550Z,59.1
2022-09-16T03:04:58.551Z,59
2022-09-16T03:05:59.550Z,58.9
2022-09-16T03:07:00.737Z,59.3
2022-09-16T03:08:02.639Z,59.2
2022-09-16T03:09:03.591Z,59.3
2022-09-16T03:10:04.663Z,59.2
2022-09-16T03:11:05.598Z,59.3
2022-09-16T03:12:06.611Z,57.6
2022-09-16T03:13:07.690Z,58.8
2022-09-16T03:14:09.650Z,58.6
2022-09-16T03:15:10.616Z,58.6
2022-09-16T03:16:11.795Z,58.7
2022-09-16T03:17:13.599Z,58.9
2022-09-16T03:18:14.679Z,58.6
2022-09-16T03:19:15.598Z,58.4
2022-09-16T03:20:16.552Z,58.1
2022-09-16T03:21:17.738Z,58.1
2022-09-16T03:22:19.697Z,58.4
2022-09-16T03:23:20.638Z,58.4
2022-09-16T03:24:21.651Z,59.3
2022-09-16T03:25:22.657Z,59.6
2022-09-16T03:26:23.558Z,59.6
2022-09-16T03:27:24.550Z,59.9
2022-09-16T03:28:25.919Z,60
2022-09-16T03:29:27.619Z,60.3
2022-09-16T03:30:28.556Z,60.2
2022-09-16T03:31:29.690Z,60
2022-09-16T03:32:30.550Z,60.1
2022-09-16T03:33:31.550Z,60.2
2022-09-16T03:34:32.539Z,60.4
2022-09-16T03:35:33.590Z,59.6
2022-09-16T03:36:34.578Z,59.8
2022-09-16T03:37:35.601Z,60.3
2022-09-16T03:38:36.552Z,60.6
2022-09-16T03:39:37.580Z,60.9
2022-09-16T03:40:38.521Z,61.4
2022-09-16T03:41:39.630Z,61.5
2022-09-16T03:42:40.570Z,61.7
2022-09-16T03:43:41.550Z,61.2
2022-09-16T03:44:42.510Z,61.3
2022-09-16T03:45:43.629Z,61.5
2022-09-16T03:46:44.570Z,61.8
2022-09-16T03:47:45.571Z,62.3
2022-09-16T03:48:46.610Z,62.2
2022-09-16T03:49:47.551Z,62.2
2022-09-16T03:50:48.571Z,62.3
2022-09-16T03:51:49.547Z,62.3
2022-09-16T03:52:50.598Z,62.5
2022-09-16T03:53:51.570Z,62.3
2022-09-16T03:54:52.650Z,62.3
2022-09-16T03:55:53.651Z,63
2022-09-16T03:56:54.570Z,62.8
2022-09-16T03:57:55.630Z,62.3
2022-09-16T03:58:56.630Z,62.6
2022-09-16T03:59:57.550Z,62.6
2022-09-16T04:00:58.610Z,62.4
2022-09-16T04:01:59.622Z,62.2
2022-09-16T04:03:00.855Z,61.9
2022-09-16T04:04:02.652Z,61.8
2022-09-16T04:05:03.694Z,61.9
2022-09-16T04:06:04.637Z,61.9
2022-09-16T04:07:05.530Z,61.8
2022-09-16T04:08:06.548Z,61.8
2022-09-16T04:09:07.670Z,62.1
2022-09-16T04:10:08.619Z,61.8
2022-09-16T04:11:09.490Z,62
2022-09-16T04:12:10.558Z,61.6
2022-09-16T04:13:11.630Z,61.8
2022-09-16T04:14:12.750Z,61.6
2022-09-16T04:15:14.638Z,61.4
2022-09-16T04:16:16.131Z,61.5
2022-09-16T04:17:17.578Z,61.2
2022-09-16T04:18:18.610Z,61.1
2022-09-16T04:19:19.590Z,61
2022-09-16T04:20:20.571Z,60.5
2022-09-16T04:21:21.610Z,60.2
2022-09-16T04:22:22.751Z,59.8
2022-09-16T04:23:24.614Z,59.6
2022-09-16T04:24:25.652Z,59.7
2022-09-16T04:25:26.673Z,59.9
2022-09-16T04:26:27.786Z,59.9
2022-09-16T04:27:29.532Z,59.9
2022-09-16T04:28:30.522Z,60.1
2022-09-16T04:29:31.690Z,60.3
2022-09-16T04:30:32.624Z,59.7
2022-09-16T04:31:33.629Z,59.5
2022-09-16T04:32:34.740Z,59.8
2022-09-16T04:33:36.602Z,60.2
2022-09-16T04:34:37.570Z,60
2022-09-16T04:35:38.633Z,60.6
2022-09-16T04:36:39.706Z,60.8
2022-09-16T04:37:40.610Z,60.8
2022-09-16T04:38:41.616Z,60.9
2022-09-16T04:39:42.731Z,61.6
2022-09-16T04:40:44.620Z,61.5
2022-09-16T04:41:46.073Z,61.1
2022-09-16T04:42:47.830Z,61.4
2022-09-16T04:43:49.730Z,61.5
2022-09-16T04:45:02.163Z,61.7
2022-09-16T04:46:18.908Z,61.7
2022-09-16T04:47:20.750Z,61.7
2022-09-16T04:48:22.863Z,61.4
2022-09-16T04:49:24.851Z,61.3
2022-09-16T04:50:26.630Z,61.5
2022-09-16T04:51:27.679Z,61.9
2022-09-16T04:52:28.510Z,62
2022-09-16T04:53:29.671Z,62.1
2022-09-16T04:54:30.937Z,62.1
2022-09-16T04:55:32.871Z,61.7
2022-09-16T04:56:34.751Z,62
2022-09-16T04:57:36.636Z,62
2022-09-16T04:58:37.562Z,61.9
2022-09-16T04:59:38.730Z,61.8
2022-09-16T05:00:39.912Z,61.7
2022-09-16T05:01:42.005Z,62.1
2022-09-16T05:02:43.810Z,62.2
2022-09-16T05:03:45.761Z,62.3
2022-09-16T05:04:46.772Z,62.6
2022-09-16T05:05:48.673Z,62.8
2022-09-16T05:06:49.811Z,62.4
2022-09-16T05:07:51.592Z,62.7
2022-09-16T05:08:52.964Z,62.6
2022-09-16T05:09:54.775Z,63
2022-09-16T05:10:56.672Z,63.1
2022-09-16T05:12:04.591Z,63.2
2022-09-16T05:13:06.805Z,63.1
2022-09-16T05:14:08.769Z,63.1
2022-09-16T05:15:10.880Z,63.3
2022-09-16T05:16:12.930Z,63.3
2022-09-16T05:17:27.827Z,62.8
2022-09-16T05:18:17.016Z,62.8
2022-09-16T05:19:19.171Z,63.2
2022-09-16T05:20:20.990Z,62.8
2022-09-16T05:21:22.917Z,63.3
2022-09-16T05:22:24.671Z,63.5
2022-09-16T05:23:25.970Z,63.4
2022-09-16T05:24:27.812Z,63.1
2022-09-16T05:25:29.937Z,63
2022-09-16T05:26:31.799Z,62.8
2022-09-16T05:27:34.129Z,62.7
2022-09-16T05:28:35.872Z,62.7
2022-09-16T05:29:37.810Z,62.6
2022-09-16T05:30:39.954Z,62.7
2022-09-16T05:31:41.790Z,62.6
2022-09-16T05:32:43.571Z,62.8
2022-09-16T05:33:45.029Z,62.5
2022-09-16T05:34:46.691Z,62.2
2022-09-16T05:35:47.731Z,61.9
2022-09-16T05:36:48.551Z,61.9
2022-09-16T05:37:49.704Z,61.7
2022-09-16T05:39:04.942Z,61.2
2022-09-16T05:39:51.665Z,61.4
2022-09-16T05:40:52.998Z,61
2022-09-16T05:41:54.699Z,61
2022-09-16T05:42:55.891Z,60.4
2022-09-16T05:43:57.890Z,60.1
2022-09-16T05:44:59.659Z,60.7
2022-09-16T05:46:00.752Z,60.6
2022-09-16T05:47:01.673Z,60.9
2022-09-16T05:48:02.689Z,60.6
2022-09-16T05:49:03.702Z,60.5
2022-09-16T05:50:04.750Z,60.3
2022-09-16T05:51:05.885Z,60.2
2022-09-16T05:52:07.661Z,59.8
2022-09-16T05:53:08.618Z,60
2022-09-16T05:54:09.633Z,60.1
2022-09-16T05:55:10.671Z,59.9
2022-09-16T05:56:12.092Z,59.1
2022-09-16T05:57:13.671Z,59.9
2022-09-16T05:58:14.711Z,59.8
2022-09-16T05:59:15.771Z,59.7
2022-09-16T06:00:16.678Z,60.2
2022-09-16T06:01:17.731Z,60.3
2022-09-16T06:02:18.743Z,60.2
2022-09-16T06:03:19.731Z,60.7
2022-09-16T06:04:21.092Z,61
2022-09-16T06:05:22.839Z,61.2
2022-09-16T06:06:24.730Z,61.5
2022-09-16T06:07:25.811Z,60.9
2022-09-16T06:08:27.791Z,60.8
2022-09-16T06:09:29.650Z,61
2022-09-16T06:10:30.673Z,60.7
2022-09-16T06:11:32.036Z,61
2022-09-16T06:12:33.752Z,61.4
2022-09-16T06:13:34.720Z,60.7
2022-09-16T06:14:35.671Z,60.9
2022-09-16T06:15:36.637Z,61
2022-09-16T06:16:37.896Z,61.3
2022-09-16T06:17:39.739Z,61.6
2022-09-16T06:18:40.733Z,61.2
2022-09-16T06:19:41.617Z,61.2
2022-09-16T06:20:42.571Z,61.1
2022-09-16T06:21:43.604Z,61.2
2022-09-16T06:22:44.659Z,61.4
2022-09-16T06:23:45.612Z,61.4
2022-09-16T06:24:46.611Z,61
2022-09-16T06:25:47.620Z,60.9
2022-09-16T06:26:48.733Z,61.1
2022-09-16T06:27:49.871Z,60.6
2022-09-16T06:28:51.958Z,60.6
2022-09-16T06:29:53.681Z,61.4
2022-09-16T06:30:54.783Z,60.9
2022-09-16T06:31:55.610Z,60.8
2022-09-16T06:32:56.730Z,60.2
2022-09-16T06:33:57.651Z,60.8
2022-09-16T06:34:58.813Z,61.1
2022-09-16T06:36:00.614Z,61.4
2022-09-16T06:37:01.711Z,61.4
2022-09-16T06:38:02.729Z,61.3
2022-09-16T06:39:03.730Z,60.5
2022-09-16T06:40:05.151Z,60.2
2022-09-16T06:41:06.792Z,59.9
2022-09-16T06:42:08.827Z,59.9
2022-09-16T06:43:09.735Z,59.8
2022-09-16T06:44:10.784Z,59.8
2022-09-16T06:45:11.750Z,60.6
2022-09-16T06:46:12.885Z,60.3
2022-09-16T06:47:14.692Z,59.1
2022-09-16T06:48:15.639Z,58.4
2022-09-16T06:49:16.590Z,57.8
2022-09-16T06:50:17.670Z,56.2
2022-09-16T06:51:19.240Z,55.7
2022-09-16T06:52:20.633Z,55.8
2022-09-16T06:53:21.781Z,57.1
2022-09-16T06:54:22.639Z,58.3
2022-09-16T06:55:23.632Z,58.7
2022-09-16T06:56:24.691Z,58.5
2022-09-16T06:57:25.798Z,57.7
2022-09-16T06:58:26.830Z,57.8
2022-09-16T06:59:28.860Z,58.3
2022-09-16T07:00:30.930Z,57.5
2022-09-16T07:01:33.014Z,58.4
2022-09-16T07:02:34.662Z,58.9
2022-09-16T07:03:35.670Z,58.4
2022-09-16T07:04:36.689Z,58.2
2022-09-16T07:05:37.730Z,58.3
2022-09-16T07:07:05.162Z,58.9
2022-09-16T07:07:39.678Z,58.7
2022-09-16T07:08:40.891Z,57.6
2022-09-16T07:09:42.811Z,57.8
2022-09-16T07:10:44.670Z,57.4
2022-09-16T07:11:45.671Z,56.3
2022-09-16T07:12:46.735Z,55.7
2022-09-16T07:13:47.779Z,56.1
2022-09-16T07:14:48.658Z,56.3
2022-09-16T07:16:09.515Z,55.5
2022-09-16T07:16:50.818Z,55.5
2022-09-16T07:17:51.699Z,55.1
2022-09-16T07:18:54.601Z,56.1
2022-09-16T07:19:54.610Z,57.1
2022-09-16T07:20:55.731Z,57.4
2022-09-16T07:21:56.719Z,56.6
2022-09-16T07:22:57.779Z,56.9
2022-09-16T07:23:58.692Z,57.6
2022-09-16T07:24:59.688Z,58.2
2022-09-16T07:26:00.850Z,58.1
2022-09-16T07:27:02.819Z,57.9
2022-09-16T07:28:03.931Z,58
2022-09-16T07:29:04.815Z,57.7
2022-09-16T07:30:09.046Z,58
2022-09-16T07:31:06.872Z,57.7
2022-09-16T07:32:08.771Z,58.2
2022-09-16T07:33:10.132Z,58.3
2022-09-16T07:34:11.830Z,58.5
2022-09-16T07:35:12.872Z,56.9
2022-09-16T07:36:14.752Z,56.7
2022-09-16T07:37:16.071Z,56.6
2022-09-16T07:38:17.890Z,57.3
2022-09-16T07:39:19.758Z,56.9
2022-09-16T07:40:20.993Z,56.4
2022-09-16T07:41:22.970Z,56.3
2022-09-16T07:42:24.840Z,56.4
2022-09-16T07:43:27.016Z,56
2022-09-16T07:44:29.011Z,56.1
2022-09-16T07:45:31.091Z,55.6
2022-09-16T07:46:32.774Z,55.4
2022-09-16T07:47:33.685Z,53.5
2022-09-16T07:48:35.370Z,54.5
2022-09-16T07:49:35.784Z,53.6
2022-09-16T07:50:36.770Z,54
2022-09-16T07:51:37.909Z,54.2
2022-09-16T07:52:39.792Z,54.3
2022-09-16T07:53:40.798Z,55
2022-09-16T07:54:41.691Z,55.1
2022-09-16T07:55:42.791Z,54.5
2022-09-16T07:56:46.297Z,54.5
2022-09-16T07:57:47.692Z,53.6
2022-09-16T07:58:48.847Z,54.1
2022-09-16T07:59:49.684Z,53.7
2022-09-16T08:00:50.841Z,53.1
2022-09-16T08:01:52.969Z,53.3
2022-09-16T08:02:54.741Z,53.1
2022-09-16T08:03:55.725Z,52.4
2022-09-16T08:04:56.870Z,52.6
2022-09-16T08:05:58.831Z,52.6
2022-09-16T08:06:59.755Z,53.1
2022-09-16T08:08:00.732Z,53.3
2022-09-16T08:09:15.436Z,53.6
2022-09-16T08:10:03.849Z,54.1
2022-09-16T08:11:05.731Z,53.7
2022-09-16T08:12:06.680Z,53.4
2022-09-16T08:13:07.818Z,52.4
2022-09-16T08:14:08.922Z,51
2022-09-16T08:15:09.904Z,51.5
2022-09-16T08:16:11.748Z,52.4
2022-09-16T08:17:12.810Z,52.3
2022-09-16T08:18:13.889Z,52.5
2022-09-16T08:19:15.770Z,54.2
2022-09-16T08:20:16.752Z,54.1
2022-09-16T08:21:17.790Z,53.2
2022-09-16T08:22:18.715Z,53.3
2022-09-16T08:23:19.770Z,53.2
2022-09-16T08:24:20.765Z,55.1
2022-09-16T08:25:21.710Z,56.8
2022-09-16T08:26:22.783Z,53.6
2022-09-16T08:27:23.734Z,53
2022-09-16T08:28:24.930Z,53
2022-09-16T08:29:26.801Z,54
2022-09-16T08:30:27.790Z,53.2
2022-09-16T08:31:28.799Z,53.8
2022-09-16T08:32:29.613Z,53
2022-09-16T08:33:30.710Z,52.3
2022-09-16T08:34:31.970Z,52.1
2022-09-16T08:35:33.811Z,51.1
2022-09-16T08:36:34.770Z,51.3
2022-09-16T08:37:35.750Z,50.1
2022-09-16T08:38:36.840Z,50.5
2022-09-16T08:39:37.811Z,49.8
2022-09-16T08:40:38.830Z,50.6
2022-09-16T08:41:39.755Z,51.4
2022-09-16T08:42:40.791Z,51
2022-09-16T08:43:41.850Z,51.6
2022-09-16T08:44:42.894Z,52.3
2022-09-16T08:45:43.864Z,50.9
2022-09-16T08:46:44.771Z,51.6
2022-09-16T08:47:45.690Z,51.1
2022-09-16T08:48:49.610Z,50.2
2022-09-16T08:49:49.198Z,48.6
2022-09-16T08:50:53.827Z,48.4
2022-09-16T08:51:55.978Z,48.3
2022-09-16T08:52:57.858Z,47.4
2022-09-16T08:53:59.956Z,48.4
2022-09-16T08:55:01.957Z,48.4
2022-09-16T08:56:03.897Z,49.1
2022-09-16T08:57:05.926Z,47.9
2022-09-16T08:58:07.902Z,47.9
2022-09-16T08:59:09.838Z,48.6
2022-09-16T09:00:11.081Z,49.5
2022-09-16T09:01:13.181Z,48.5
2022-09-16T09:02:15.633Z,48.6
2022-09-16T09:03:17.407Z,50.4
2022-09-16T09:04:19.064Z,49.6
2022-09-16T09:05:20.937Z,49.1
2022-09-16T09:06:23.017Z,48.2
2022-09-16T09:07:25.178Z,47.3
2022-09-16T09:08:27.037Z,47.7
2022-09-16T09:09:29.133Z,48.9
2022-09-16T09:10:31.158Z,48.1
2022-09-16T09:11:34.036Z,46.8
2022-09-16T09:12:35.885Z,48.6
2022-09-16T09:13:37.137Z,47.5
2022-09-16T09:14:39.723Z,47.5
2022-09-16T09:15:41.177Z,47.4
2022-09-16T09:16:42.986Z,49.2
2022-09-16T09:17:48.534Z,47.8
2022-09-16T09:18:47.261Z,47.4
2022-09-16T09:19:49.044Z,48.3
2022-09-16T09:20:50.978Z,48.9
2022-09-16T09:21:53.134Z,48
2022-09-16T09:22:54.837Z,48
2022-09-16T09:23:55.937Z,47.2
2022-09-16T09:24:58.158Z,47.3
2022-09-16T09:26:00.157Z,48.8
2022-09-16T09:27:02.037Z,48.6
2022-09-16T09:28:03.897Z,48.5
2022-09-16T09:29:05.938Z,48.8
2022-09-16T09:30:08.018Z,49.5
2022-09-16T09:31:10.952Z,50.1
2022-09-16T09:32:11.917Z,50
2022-09-16T09:33:34.476Z,50.1
2022-09-16T09:34:16.058Z,51.6
2022-09-16T09:35:18.295Z,52.1
2022-09-16T09:36:20.198Z,51.4
2022-09-16T09:37:21.916Z,51.5
2022-09-16T09:38:24.046Z,52.7
2022-09-16T09:39:26.139Z,52.5
2022-09-16T09:40:28.582Z,53.4
2022-09-16T09:41:29.857Z,54.8
2022-09-16T09:42:31.177Z,55.8
2022-09-16T09:43:33.178Z,57
2022-09-16T09:44:35.217Z,56.4
2022-09-16T09:45:37.323Z,55.1
2022-09-16T09:46:39.230Z,54
2022-09-16T09:47:41.178Z,53.3
2022-09-16T09:48:42.895Z,55.1
2022-09-16T09:49:45.176Z,54.4
2022-09-16T09:50:47.085Z,53
2022-09-16T09:51:49.196Z,51.4
2022-09-16T09:52:50.996Z,51.6
2022-09-16T09:53:53.473Z,50.7
2022-09-16T09:54:54.992Z,49.9
2022-09-16T09:55:57.277Z,50
2022-09-16T09:56:59.137Z,50.3
2022-09-16T09:58:01.219Z,51.2
2022-09-16T09:59:03.160Z,50.5
2022-09-16T10:00:05.037Z,51.8
2022-09-16T10:01:07.273Z,52.6
2022-09-16T10:02:09.157Z,52.9
2022-09-16T10:03:11.159Z,51.4
2022-09-16T10:04:12.996Z,53.2
2022-09-16T10:05:15.224Z,53.7
2022-09-16T10:06:16.936Z,51.8
2022-09-16T10:07:19.000Z,49.1
2022-09-16T10:08:21.016Z,50.7
2022-09-16T10:09:23.156Z,47.7
2022-09-16T10:10:25.156Z,46.7
2022-09-16T10:11:27.078Z,46.9
2022-09-16T10:12:29.256Z,46
2022-09-16T10:13:31.054Z,45.3
2022-09-16T10:14:33.289Z,46.5
2022-09-16T10:15:35.187Z,47.1
2022-09-16T10:16:36.972Z,46.8
2022-09-16T10:17:39.200Z,48.2
2022-09-16T10:18:41.027Z,47.5
2022-09-16T10:19:42.976Z,45.9
2022-09-16T10:20:44.900Z,44.9
2022-09-16T10:21:47.096Z,45.6
2022-09-16T10:22:49.484Z,45
2022-09-16T10:23:50.934Z,46.3
2022-09-16T10:24:53.176Z,47.3
2022-09-16T10:25:54.918Z,46.5
2022-09-16T10:26:56.997Z,46
2022-09-16T10:27:59.196Z,45.7
2022-09-16T10:29:00.915Z,45.6
2022-09-16T10:30:02.996Z,48
2022-09-16T10:31:05.307Z,46.5
2022-09-16T10:32:07.156Z,46.9
2022-09-16T10:33:09.106Z,47.4
2022-09-16T10:34:10.977Z,46.9
2022-09-16T10:35:12.976Z,47.2
2022-09-16T10:36:14.980Z,45.2
2022-09-16T10:37:17.217Z,45
2022-09-16T10:38:19.091Z,43.7
2022-09-16T10:39:20.925Z,43.8
2022-09-16T10:40:23.298Z,42.8
2022-09-16T10:41:24.996Z,44
2022-09-16T10:42:27.096Z,43.6
2022-09-16T10:43:29.344Z,42.8
2022-09-16T10:44:31.209Z,43.2
2022-09-16T10:45:33.291Z,43.1
2022-09-16T10:46:35.311Z,43.8
2022-09-16T10:47:37.196Z,45.1
2022-09-16T10:48:39.253Z,46
2022-09-16T10:49:41.235Z,44.8
2022-09-16T10:50:43.293Z,45.6
2022-09-16T10:51:45.236Z,45.3
2022-09-16T10:52:47.215Z,45.2
2022-09-16T10:53:49.115Z,43.5
2022-09-16T10:54:51.137Z,43.8
2022-09-16T10:55:53.195Z,43
2022-09-16T10:56:55.177Z,42.4
2022-09-16T10:57:57.256Z,41.8
2022-09-16T10:58:58.975Z,41.2
2022-09-16T11:00:01.115Z,41
2022-09-16T11:01:03.236Z,41.4
2022-09-16T11:02:05.209Z,41.9
2022-09-16T11:03:07.023Z,43.5
2022-09-16T11:04:09.132Z,42.5
2022-09-16T11:05:11.038Z,41.7
2022-09-16T11:06:13.011Z,41.4
2022-09-16T11:07:15.196Z,43.9
2022-09-16T11:08:17.137Z,44.9
2022-09-16T11:09:19.255Z,47.2
2022-09-16T11:10:23.922Z,48.9
2022-09-16T11:11:25.003Z,48.4
2022-09-16T11:12:27.056Z,49.6
2022-09-16T11:13:28.996Z,49.1
2022-09-16T11:14:31.276Z,47.8
2022-09-16T11:15:32.925Z,47.7
2022-09-16T11:16:35.020Z,49.6
2022-09-16T11:17:37.055Z,49.9
2022-09-16T11:18:39.116Z,46.6
2022-09-16T11:19:41.473Z,46.4
2022-09-16T11:20:43.258Z,47
2022-09-16T11:21:45.063Z,47.9
2022-09-16T11:22:47.035Z,48.2
2022-09-16T11:23:48.996Z,47.6
2022-09-16T11:24:51.320Z,45
2022-09-16T11:25:53.315Z,44.3
2022-09-16T11:26:55.052Z,45.2
2022-09-16T11:27:57.135Z,45.9
2022-09-16T11:28:59.356Z,43.4
2022-09-16T11:30:01.118Z,43.5
2022-09-16T11:31:03.129Z,43.8
2022-09-16T11:32:05.015Z,43.7
2022-09-16T11:33:07.263Z,43.3
2022-09-16T11:34:09.023Z,45.5
2022-09-16T11:35:11.143Z,44.4
2022-09-16T11:36:13.037Z,44.8
2022-09-16T11:37:14.975Z,43.9
2022-09-16T11:38:16.992Z,42.3
2022-09-16T11:39:19.396Z,41.6
2022-09-16T11:40:21.218Z,41.6
2022-09-16T11:41:23.103Z,42.1
2022-09-16T11:42:25.090Z,40.6
2022-09-16T11:43:27.115Z,40.4
2022-09-16T11:44:29.163Z,39.2
2022-09-16T11:45:31.300Z,39
2022-09-16T11:46:33.252Z,39.8
2022-09-16T11:47:39.847Z,39.4
2022-09-16T11:48:36.998Z,39.3
2022-09-16T11:49:39.055Z,38.5
2022-09-16T11:50:41.334Z,39.4
2022-09-16T11:51:43.155Z,38.9
2022-09-16T11:52:45.062Z,39.3
2022-09-16T11:53:47.188Z,39.9
2022-09-16T11:54:49.036Z,40.5
2022-09-16T11:55:51.219Z,41.2
2022-09-16T11:56:53.434Z,40.9
2022-09-16T11:57:55.178Z,40.6
2022-09-16T11:58:57.227Z,40.9
2022-09-16T11:59:59.135Z,40.5
2022-09-16T12:01:01.397Z,38.8
2022-09-16T12:02:03.495Z,40.5
2022-09-16T12:03:05.227Z,40.6
2022-09-16T12:04:07.011Z,39.7
2022-09-16T12:05:09.218Z,41
2022-09-16T12:06:11.233Z,41.2
2022-09-16T12:07:13.185Z,43.8
2022-09-16T12:08:15.098Z,42.1
2022-09-16T12:09:16.987Z,40.4
2022-09-16T12:10:19.075Z,40
2022-09-16T12:11:21.635Z,39.1
2022-09-16T12:12:23.077Z,39
2022-09-16T12:13:25.014Z,37.6
2022-09-16T12:14:27.175Z,38.9
2022-09-16T12:15:29.269Z,36.8
2022-09-16T12:16:32.470Z,38.3
2022-09-16T12:17:33.230Z,37.2
2022-09-16T12:18:35.064Z,37.6
2022-09-16T12:19:36.935Z,37.3
2022-09-16T12:20:38.017Z,36
2022-09-16T12:21:40.085Z,36.3
2022-09-16T12:22:41.215Z,37.2
2022-09-16T12:23:43.303Z,39.2
2022-09-16T12:24:45.284Z,35.9
2022-09-16T12:25:47.052Z,35.9
2022-09-16T12:26:48.956Z,36.6
2022-09-16T12:27:50.056Z,38.7
2022-09-16T12:28:52.255Z,39.6
2022-09-16T12:29:53.976Z,39.9
2022-09-16T12:30:55.080Z,38.2
2022-09-16T12:31:57.355Z,38.5
2022-09-16T12:32:59.176Z,36.7
2022-09-16T12:34:01.356Z,35.4
2022-09-16T12:35:03.116Z,34.3
2022-09-16T12:36:05.775Z,34.2
2022-09-16T12:37:07.292Z,34.8
2022-09-16T12:38:09.176Z,35.5
2022-09-16T12:39:11.282Z,36.8
2022-09-16T12:40:13.170Z,36.6
2022-09-16T12:41:15.015Z,37.9
2022-09-16T12:42:17.312Z,38.1
2022-09-16T12:43:19.051Z,38.2
2022-09-16T12:44:33.804Z,38.5
2022-09-16T12:45:23.175Z,40.7
2022-09-16T12:46:25.481Z,42.9
2022-09-16T12:47:27.305Z,41.7
2022-09-16T12:48:29.335Z,40.2
2022-09-16T12:49:31.201Z,40.5
2022-09-16T12:50:33.215Z,41
2022-09-16T12:51:35.195Z,39.5
2022-09-16T12:52:37.209Z,37.3
2022-09-16T12:53:39.036Z,39
2022-09-16T12:54:57.280Z,37.5
2022-09-16T12:55:43.084Z,34.6
2022-09-16T12:56:45.335Z,34.9
2022-09-16T12:57:47.035Z,36
2022-09-16T12:58:49.310Z,36.9
2022-09-16T12:59:51.056Z,36.7
2022-09-16T13:00:53.076Z,37.3
2022-09-16T13:01:59.090Z,36.2
2022-09-16T13:02:57.231Z,34.5
2022-09-16T13:03:59.376Z,36
2022-09-16T13:05:01.235Z,36.9
2022-09-16T13:06:03.276Z,36.1
2022-09-16T13:07:05.215Z,35.9
2022-09-16T13:08:07.339Z,36.1
2022-09-16T13:09:09.025Z,37.5
2022-09-16T13:10:11.026Z,37.8
2022-09-16T13:11:51.358Z,36.1
2022-09-16T13:13:17.077Z,35.9
2022-09-16T13:14:18.997Z,34.5
2022-09-16T13:15:20.221Z,36
2022-09-16T13:16:22.123Z,35.3
2022-09-16T13:17:24.456Z,35
2022-09-16T13:18:26.084Z,35.7
2022-09-16T13:19:28.870Z,38.2
2022-09-16T13:20:30.357Z,38.6
2022-09-16T13:21:32.039Z,37.5
2022-09-16T13:22:34.236Z,37.3
2022-09-16T13:23:36.155Z,36.1
2022-09-16T13:24:38.054Z,37.1
2022-09-16T13:25:39.990Z,39.2
2022-09-16T13:26:41.056Z,37.9
2022-09-16T13:27:43.081Z,39.6
2022-09-16T13:28:45.158Z,39
2022-09-16T13:29:47.057Z,39
2022-09-16T13:30:49.121Z,38.8
2022-09-16T13:31:51.355Z,40.5
2022-09-16T13:32:53.100Z,40.3
2022-09-16T13:33:55.152Z,40.4
2022-09-16T13:34:57.076Z,40.1
2022-09-16T13:35:59.221Z,40.1
2022-09-16T13:37:01.139Z,38.7
2022-09-16T13:38:05.019Z,38.6
2022-09-16T13:39:07.255Z,37
2022-09-16T13:40:09.297Z,37.8
2022-09-16T13:41:11.039Z,38.4
2022-09-16T13:42:13.050Z,37.9
2022-09-16T13:43:15.271Z,37.8
2022-09-16T13:44:17.102Z,38.2
2022-09-16T13:45:22.085Z,37.4
2022-09-16T13:46:21.196Z,37
2022-09-16T13:47:22.941Z,38.1
2022-09-16T13:48:24.291Z,38.6
2022-09-16T13:49:26.049Z,38.4
2022-09-16T13:50:28.178Z,36.5